createdAt,value
2018-12-01T00:00:20.605Z,1009.19
2018-12-01T00:01:20.624Z,1009.18
2018-12-01T00:02:20.633Z,1009.19
2018-12-01T00:03:20.648Z,1009.20
2018-12-01T00:04:20.662Z,1009.17
2018-12-01T00:05:20.673Z,1009.17
2018-12-01T00:06:20.684Z,1009.16
2018-12-01T00:07:20.698Z,1009.18
2018-12-01T00:08:20.710Z,1009.16
2018-12-01T00:09:20.724Z,1009.16
2018-12-01T00:10:20.738Z,1009.18
2018-12-01T00:11:20.750Z,1009.20
2018-12-01T00:12:20.766Z,1009.14
2018-12-01T00:13:20.780Z,1009.22
2018-12-01T00:14:20.785Z,1009.20
2018-12-01T00:15:20.807Z,1009.20
2018-12-01T00:16:20.822Z,1009.17
2018-12-01T00:17:20.825Z,1009.19
2018-12-01T00:18:20.842Z,1009.17
2018-12-01T00:19:20.855Z,1009.20
2018-12-01T00:20:20.864Z,1009.21
2018-12-01T00:21:20.882Z,1009.22
2018-12-01T00:22:20.891Z,1009.18
2018-12-01T00:23:20.904Z,1009.20
2018-12-01T00:24:20.916Z,1009.26
2018-12-01T00:25:20.930Z,1009.27
2018-12-01T00:26:20.938Z,1009.26
2018-12-01T00:27:20.952Z,1009.28
2018-12-01T00:28:20.962Z,1009.24
2018-12-01T00:29:20.995Z,1009.26
2018-12-01T00:30:20.994Z,1009.23
2018-12-01T00:31:21.007Z,1009.26
2018-12-01T00:32:21.019Z,1009.23
2018-12-01T00:33:21.031Z,1009.25
2018-12-01T00:34:21.038Z,1009.25
2018-12-01T00:35:21.057Z,1009.20
2018-12-01T00:36:21.068Z,1009.20
2018-12-01T00:37:21.081Z,1009.24
2018-12-01T00:38:21.096Z,1009.26
2018-12-01T00:39:21.104Z,1009.22
2018-12-01T00:40:21.127Z,1009.19
2018-12-01T00:41:21.134Z,1009.18
2018-12-01T00:42:21.144Z,1009.16
2018-12-01T00:43:21.157Z,1009.15
2018-12-01T00:44:21.170Z,1009.21
2018-12-01T00:45:21.201Z,1009.15
2018-12-01T00:46:21.198Z,1009.15
2018-12-01T00:47:21.221Z,1009.17
2018-12-01T00:48:21.222Z,1009.17
2018-12-01T00:49:21.236Z,1009.19
2018-12-01T00:50:21.249Z,1009.12
2018-12-01T00:51:21.246Z,1009.09
2018-12-01T00:52:21.273Z,1009.11
2018-12-01T00:53:21.299Z,1009.12
2018-12-01T00:54:21.294Z,1009.09
2018-12-01T00:55:21.305Z,1009.12
2018-12-01T00:56:21.320Z,1009.10
2018-12-01T00:57:21.338Z,1009.17
2018-12-01T00:58:21.339Z,1009.16
2018-12-01T00:59:21.354Z,1009.12
2018-12-01T01:00:21.385Z,1009.14
2018-12-01T01:01:21.395Z,1009.13
2018-12-01T01:02:21.398Z,1009.09
2018-12-01T01:03:22.277Z,1009.11
2018-12-01T01:04:21.423Z,1009.08
2018-12-01T01:05:21.446Z,1009.11
2018-12-01T01:06:21.452Z,1009.15
2018-12-01T01:07:21.475Z,1009.11
2018-12-01T01:08:21.534Z,1009.10
2018-12-01T01:09:21.500Z,1009.10
2018-12-01T01:10:21.504Z,1009.11
2018-12-01T01:11:21.573Z,1009.12
2018-12-01T01:12:21.536Z,1009.15
2018-12-01T01:13:21.546Z,1009.13
2018-12-01T01:14:21.551Z,1009.18
2018-12-01T01:15:21.565Z,1009.15
2018-12-01T01:16:21.592Z,1009.19
2018-12-01T01:17:21.602Z,1009.17
2018-12-01T01:18:21.598Z,1009.19
2018-12-01T01:19:21.623Z,1009.21
2018-12-01T01:20:21.629Z,1009.24
2018-12-01T01:21:21.636Z,1009.24
2018-12-01T01:22:21.644Z,1009.26
2018-12-01T01:23:21.666Z,1009.22
2018-12-01T01:24:21.681Z,1009.26
2018-12-01T01:25:21.691Z,1009.31
2018-12-01T01:26:21.701Z,1009.30
2018-12-01T01:27:21.719Z,1009.27
2018-12-01T01:28:21.721Z,1009.29
2018-12-01T01:29:21.736Z,1009.28
2018-12-01T01:30:21.763Z,1009.25
2018-12-01T01:31:21.765Z,1009.24
2018-12-01T01:32:21.781Z,1009.27
2018-12-01T01:33:21.788Z,1009.23
2018-12-01T01:34:21.805Z,1009.22
2018-12-01T01:35:21.810Z,1009.24
2018-12-01T01:36:21.826Z,1009.23
2018-12-01T01:37:21.839Z,1009.22
2018-12-01T01:38:21.843Z,1009.17
2018-12-01T01:39:21.861Z,1009.22
2018-12-01T01:40:21.873Z,1009.25
2018-12-01T01:41:21.884Z,1009.25
2018-12-01T01:42:21.898Z,1009.26
2018-12-01T01:43:21.912Z,1009.30
2018-12-01T01:44:21.917Z,1009.28
2018-12-01T01:45:21.938Z,1009.26
2018-12-01T01:46:21.951Z,1009.25
2018-12-01T01:47:21.967Z,1009.25
2018-12-01T01:48:21.971Z,1009.27
2018-12-01T01:49:22.003Z,1009.22
2018-12-01T01:50:22.001Z,1009.22
2018-12-01T01:51:22.011Z,1009.27
2018-12-01T01:52:22.057Z,1009.28
2018-12-01T01:53:22.027Z,1009.23
2018-12-01T01:54:22.064Z,1009.26
2018-12-01T01:55:22.068Z,1009.26
2018-12-01T01:56:22.081Z,1009.22
2018-12-01T01:57:22.091Z,1009.22
2018-12-01T01:58:22.107Z,1009.23
2018-12-01T01:59:22.105Z,1009.22
2018-12-01T02:00:22.121Z,1009.21
2018-12-01T02:01:22.133Z,1009.19
2018-12-01T02:02:22.143Z,1009.19
2018-12-01T02:03:22.166Z,1009.18
2018-12-01T02:04:22.170Z,1009.19
2018-12-01T02:05:22.182Z,1009.16
2018-12-01T02:06:22.202Z,1009.12
2018-12-01T02:07:22.204Z,1009.14
2018-12-01T02:08:22.213Z,1009.13
2018-12-01T02:09:22.251Z,1009.11
2018-12-01T02:10:22.253Z,1009.06
2018-12-01T02:11:22.264Z,1009.07
2018-12-01T02:12:22.268Z,1009.09
2018-12-01T02:13:22.282Z,1009.10
2018-12-01T02:14:22.285Z,1009.10
2018-12-01T02:15:22.310Z,1009.09
2018-12-01T02:16:22.322Z,1009.09
2018-12-01T02:17:22.329Z,1009.15
2018-12-01T02:18:22.348Z,1009.13
2018-12-01T02:19:22.354Z,1009.09
2018-12-01T02:20:22.371Z,1009.09
2018-12-01T02:21:22.383Z,1009.12
2018-12-01T02:22:22.392Z,1009.12
2018-12-01T02:23:22.402Z,1009.08
2018-12-01T02:24:22.414Z,1009.09
2018-12-01T02:25:22.429Z,1009.09
2018-12-01T02:26:22.440Z,1009.13
2018-12-01T02:27:22.448Z,1009.12
2018-12-01T02:28:22.466Z,1009.11
2018-12-01T02:29:22.479Z,1009.14
2018-12-01T02:30:22.493Z,1009.14
2018-12-01T02:31:22.497Z,1009.12
2018-12-01T02:32:22.512Z,1009.11
2018-12-01T02:33:22.523Z,1009.12
2018-12-01T02:34:22.538Z,1009.08
2018-12-01T02:35:22.554Z,1009.12
2018-12-01T02:36:22.572Z,1009.11
2018-12-01T02:37:22.570Z,1009.13
2018-12-01T02:38:22.585Z,1009.11
2018-12-01T02:39:22.602Z,1009.13
2018-12-01T02:40:22.622Z,1009.12
2018-12-01T02:41:22.623Z,1009.20
2018-12-01T02:42:22.639Z,1009.10
2018-12-01T02:43:22.644Z,1009.13
2018-12-01T02:44:22.658Z,1009.10
2018-12-01T02:45:22.666Z,1009.03
2018-12-01T02:46:22.677Z,1009.03
2018-12-01T02:47:22.708Z,1009.03
2018-12-01T02:48:22.706Z,1008.99
2018-12-01T02:49:22.715Z,1008.97
2018-12-01T02:50:22.731Z,1008.99
2018-12-01T02:51:22.748Z,1008.97
2018-12-01T02:52:22.749Z,1008.98
2018-12-01T02:53:22.769Z,1009.02
2018-12-01T02:54:22.774Z,1009.00
2018-12-01T02:55:22.788Z,1009.02
2018-12-01T02:56:22.801Z,1009.04
2018-12-01T02:57:22.811Z,1009.02
2018-12-01T02:58:22.823Z,1009.04
2018-12-01T02:59:22.840Z,1009.03
2018-12-01T03:00:22.851Z,1009.00
2018-12-01T03:01:22.859Z,1009.03
2018-12-01T03:02:22.871Z,1008.99
2018-12-01T03:03:22.879Z,1009.05
2018-12-01T03:04:22.895Z,1009.01
2018-12-01T03:05:22.907Z,1009.01
2018-12-01T03:06:22.915Z,1009.03
2018-12-01T03:07:22.929Z,1009.00
2018-12-01T03:08:22.939Z,1009.01
2018-12-01T03:09:22.953Z,1009.02
2018-12-01T03:10:22.965Z,1008.99
2018-12-01T03:11:22.979Z,1009.00
2018-12-01T03:12:22.989Z,1008.99
2018-12-01T03:13:23.001Z,1009.00
2018-12-01T03:14:23.015Z,1009.06
2018-12-01T03:15:23.029Z,1009.02
2018-12-01T03:16:23.039Z,1009.02
2018-12-01T03:17:23.049Z,1009.10
2018-12-01T03:18:23.059Z,1009.05
2018-12-01T03:19:23.078Z,1009.03
2018-12-01T03:20:23.085Z,1008.99
2018-12-01T03:21:23.098Z,1009.01
2018-12-01T03:22:23.105Z,1008.98
2018-12-01T03:23:23.113Z,1008.99
2018-12-01T03:24:23.133Z,1009.03
2018-12-01T03:25:23.144Z,1009.08
2018-12-01T03:26:23.157Z,1009.05
2018-12-01T03:27:23.173Z,1009.09
2018-12-01T03:28:23.176Z,1009.10
2018-12-01T03:29:23.198Z,1009.09
2018-12-01T03:30:23.237Z,1009.07
2018-12-01T03:31:23.214Z,1009.13
2018-12-01T03:32:23.225Z,1009.12
2018-12-01T03:33:23.237Z,1009.11
2018-12-01T03:34:23.251Z,1009.08
2018-12-01T03:35:23.262Z,1009.06
2018-12-01T03:36:23.275Z,1009.08
2018-12-01T03:37:23.289Z,1009.07
2018-12-01T03:38:23.291Z,1009.05
2018-12-01T03:39:23.317Z,1009.06
2018-12-01T03:40:23.319Z,1009.01
2018-12-01T03:41:23.331Z,1008.99
2018-12-01T03:42:23.345Z,1008.99
2018-12-01T03:43:23.353Z,1009.02
2018-12-01T03:44:23.367Z,1009.04
2018-12-01T03:45:23.379Z,1009.06
2018-12-01T03:46:23.390Z,1009.05
2018-12-01T03:47:23.407Z,1009.03
2018-12-01T03:48:23.411Z,1009.04
2018-12-01T03:49:23.428Z,1009.04
2018-12-01T03:50:23.438Z,1009.07
2018-12-01T03:51:23.467Z,1009.01
2018-12-01T03:52:23.461Z,1009.04
2018-12-01T03:53:23.555Z,1009.02
2018-12-01T03:54:23.479Z,1009.01
2018-12-01T03:55:23.501Z,1009.01
2018-12-01T03:56:23.509Z,1008.98
2018-12-01T03:57:23.523Z,1008.96
2018-12-01T03:58:23.529Z,1008.98
2018-12-01T03:59:23.537Z,1008.99
2018-12-01T04:00:23.552Z,1008.98
2018-12-01T04:01:23.565Z,1009.03
2018-12-01T04:02:23.574Z,1008.97
2018-12-01T04:03:24.308Z,1009.03
2018-12-01T04:04:23.593Z,1009.04
2018-12-01T04:05:23.621Z,1009.08
2018-12-01T04:06:23.621Z,1009.07
2018-12-01T04:07:23.639Z,1009.07
2018-12-01T04:08:23.651Z,1009.05
2018-12-01T04:09:23.651Z,1009.08
2018-12-01T04:10:23.664Z,1009.09
2018-12-01T04:11:23.677Z,1009.07
2018-12-01T04:12:23.693Z,1009.06
2018-12-01T04:13:23.704Z,1009.09
2018-12-01T04:14:23.721Z,1009.08
2018-12-01T04:15:23.733Z,1009.12
2018-12-01T04:16:23.739Z,1009.11
2018-12-01T04:17:23.749Z,1009.15
2018-12-01T04:18:23.761Z,1009.14
2018-12-01T04:19:23.777Z,1009.13
2018-12-01T04:20:23.799Z,1009.10
2018-12-01T04:21:23.793Z,1009.10
2018-12-01T04:22:23.801Z,1009.12
2018-12-01T04:23:23.821Z,1009.10
2018-12-01T04:24:23.827Z,1009.13
2018-12-01T04:25:23.849Z,1009.12
2018-12-01T04:26:23.851Z,1009.15
2018-12-01T04:27:23.863Z,1009.16
2018-12-01T04:28:23.874Z,1009.21
2018-12-01T04:29:23.890Z,1009.19
2018-12-01T04:30:23.900Z,1009.15
2018-12-01T04:31:23.901Z,1009.19
2018-12-01T04:32:23.925Z,1009.17
2018-12-01T04:33:23.931Z,1009.21
2018-12-01T04:34:23.945Z,1009.21
2018-12-01T04:35:23.959Z,1009.20
2018-12-01T04:36:23.961Z,1009.29
2018-12-01T04:37:23.988Z,1009.23
2018-12-01T04:38:24.095Z,1009.28
2018-12-01T04:39:24.003Z,1009.29
2018-12-01T04:40:24.041Z,1009.28
2018-12-01T04:41:24.021Z,1009.29
2018-12-01T04:42:24.114Z,1009.33
2018-12-01T04:43:24.051Z,1009.32
2018-12-01T04:44:24.053Z,1009.34
2018-12-01T04:45:24.070Z,1009.33
2018-12-01T04:46:24.124Z,1009.33
2018-12-01T04:47:24.094Z,1009.37
2018-12-01T04:48:24.112Z,1009.35
2018-12-01T04:49:24.118Z,1009.37
2018-12-01T04:50:24.132Z,1009.40
2018-12-01T04:51:24.143Z,1009.39
2018-12-01T04:52:24.148Z,1009.44
2018-12-01T04:53:24.169Z,1009.41
2018-12-01T04:54:24.181Z,1009.43
2018-12-01T04:55:24.212Z,1009.47
2018-12-01T04:56:24.199Z,1009.43
2018-12-01T04:57:24.206Z,1009.41
2018-12-01T04:58:24.219Z,1009.40
2018-12-01T04:59:24.234Z,1009.44
2018-12-01T05:00:24.246Z,1009.39
2018-12-01T05:01:24.255Z,1009.45
2018-12-01T05:02:24.271Z,1009.45
2018-12-01T05:03:24.278Z,1009.47
2018-12-01T05:04:24.288Z,1009.46
2018-12-01T05:05:24.306Z,1009.43
2018-12-01T05:06:24.318Z,1009.45
2018-12-01T05:07:24.323Z,1009.45
2018-12-01T05:08:24.335Z,1009.45
2018-12-01T05:09:24.348Z,1009.43
2018-12-01T05:10:24.378Z,1009.45
2018-12-01T05:11:24.368Z,1009.44
2018-12-01T05:12:24.377Z,1009.44
2018-12-01T05:13:24.387Z,1009.40
2018-12-01T05:14:24.407Z,1009.41
2018-12-01T05:15:24.416Z,1009.42
2018-12-01T05:16:24.417Z,1009.41
2018-12-01T05:17:24.442Z,1009.44
2018-12-01T05:18:24.446Z,1009.45
2018-12-01T05:19:24.467Z,1009.46
2018-12-01T05:20:24.477Z,1009.42
2018-12-01T05:21:24.483Z,1009.41
2018-12-01T05:22:24.498Z,1009.48
2018-12-01T05:23:24.504Z,1009.47
2018-12-01T05:24:24.513Z,1009.45
2018-12-01T05:25:24.523Z,1009.43
2018-12-01T05:26:24.542Z,1009.51
2018-12-01T05:27:24.556Z,1009.48
2018-12-01T05:28:24.595Z,1009.47
2018-12-01T05:29:24.579Z,1009.49
2018-12-01T05:30:24.587Z,1009.47
2018-12-01T05:31:24.601Z,1009.45
2018-12-01T05:32:24.611Z,1009.42
2018-12-01T05:33:24.618Z,1009.40
2018-12-01T05:34:24.633Z,1009.43
2018-12-01T05:35:24.640Z,1009.44
2018-12-01T05:36:24.654Z,1009.41
2018-12-01T05:37:24.665Z,1009.37
2018-12-01T05:38:24.668Z,1009.38
2018-12-01T05:39:24.690Z,1009.38
2018-12-01T05:40:24.690Z,1009.35
2018-12-01T05:41:24.711Z,1009.34
2018-12-01T05:42:24.718Z,1009.36
2018-12-01T05:43:24.732Z,1009.36
2018-12-01T05:44:24.745Z,1009.38
2018-12-01T05:45:24.771Z,1009.41
2018-12-01T05:46:24.765Z,1009.38
2018-12-01T05:47:24.776Z,1009.38
2018-12-01T05:48:24.793Z,1009.43
2018-12-01T05:49:24.834Z,1009.46
2018-12-01T05:50:24.815Z,1009.48
2018-12-01T05:51:24.826Z,1009.53
2018-12-01T05:52:24.835Z,1009.52
2018-12-01T05:53:24.846Z,1009.55
2018-12-01T05:54:24.872Z,1009.59
2018-12-01T05:55:24.878Z,1009.56
2018-12-01T05:56:24.883Z,1009.55
2018-12-01T05:57:24.895Z,1009.50
2018-12-01T05:58:24.907Z,1009.50
2018-12-01T05:59:24.923Z,1009.54
2018-12-01T06:00:24.929Z,1009.51
2018-12-01T06:01:24.937Z,1009.54
2018-12-01T06:02:24.949Z,1009.47
2018-12-01T06:03:24.955Z,1009.53
2018-12-01T06:04:24.989Z,1009.52
2018-12-01T06:05:24.991Z,1009.57
2018-12-01T06:06:24.997Z,1009.52
2018-12-01T06:07:25.009Z,1009.54
2018-12-01T06:08:25.021Z,1009.52
2018-12-01T06:09:25.032Z,1009.46
2018-12-01T06:10:25.429Z,1009.49
2018-12-01T06:11:25.055Z,1009.47
2018-12-01T06:12:25.064Z,1009.47
2018-12-01T06:13:25.074Z,1009.49
2018-12-01T06:14:25.079Z,1009.44
2018-12-01T06:15:25.098Z,1009.45
2018-12-01T06:16:25.110Z,1009.45
2018-12-01T06:17:25.116Z,1009.50
2018-12-01T06:18:25.134Z,1009.46
2018-12-01T06:19:25.140Z,1009.36
2018-12-01T06:20:25.157Z,1009.37
2018-12-01T06:21:25.158Z,1009.40
2018-12-01T06:22:25.170Z,1009.38
2018-12-01T06:23:25.183Z,1009.36
2018-12-01T06:24:25.192Z,1009.40
2018-12-01T06:25:25.214Z,1009.39
2018-12-01T06:26:25.218Z,1009.34
2018-12-01T06:27:25.225Z,1009.33
2018-12-01T06:28:25.235Z,1009.28
2018-12-01T06:29:25.246Z,1009.31
2018-12-01T06:30:25.258Z,1009.29
2018-12-01T06:31:25.272Z,1009.26
2018-12-01T06:32:25.279Z,1009.30
2018-12-01T06:33:25.296Z,1009.32
2018-12-01T06:34:25.319Z,1009.31
2018-12-01T06:35:25.314Z,1009.32
2018-12-01T06:36:25.327Z,1009.27
2018-12-01T06:37:25.336Z,1009.29
2018-12-01T06:38:25.349Z,1009.32
2018-12-01T06:39:25.364Z,1009.30
2018-12-01T06:40:25.371Z,1009.34
2018-12-01T06:41:25.371Z,1009.29
2018-12-01T06:42:25.392Z,1009.28
2018-12-01T06:43:25.412Z,1009.30
2018-12-01T06:44:25.414Z,1009.36
2018-12-01T06:45:25.426Z,1009.39
2018-12-01T06:46:25.435Z,1009.38
2018-12-01T06:47:25.450Z,1009.40
2018-12-01T06:48:25.462Z,1009.39
2018-12-01T06:49:25.470Z,1009.33
2018-12-01T06:50:25.484Z,1009.34
2018-12-01T06:51:25.490Z,1009.35
2018-12-01T06:52:25.507Z,1009.36
2018-12-01T06:53:25.512Z,1009.37
2018-12-01T06:54:25.528Z,1009.36
2018-12-01T06:55:25.526Z,1009.38
2018-12-01T06:56:25.549Z,1009.33
2018-12-01T06:57:25.570Z,1009.34
2018-12-01T06:58:25.572Z,1009.31
2018-12-01T06:59:25.575Z,1009.31
2018-12-01T07:00:25.586Z,1009.30
2018-12-01T07:01:25.614Z,1009.30
2018-12-01T07:02:25.615Z,1009.32
2018-12-01T07:03:25.664Z,1009.26
2018-12-01T07:04:25.642Z,1009.28
2018-12-01T07:05:25.661Z,1009.32
2018-12-01T07:06:25.666Z,1009.29
2018-12-01T07:07:25.674Z,1009.33
2018-12-01T07:08:25.684Z,1009.29
2018-12-01T07:09:25.697Z,1009.32
2018-12-01T07:10:25.710Z,1009.33
2018-12-01T07:11:25.750Z,1009.37
2018-12-01T07:12:25.738Z,1009.32
2018-12-01T07:13:25.740Z,1009.32
2018-12-01T07:14:25.768Z,1009.29
2018-12-01T07:15:25.781Z,1009.25
2018-12-01T07:16:25.771Z,1009.24
2018-12-01T07:17:25.788Z,1009.26
2018-12-01T07:18:25.795Z,1009.24
2018-12-01T07:19:25.809Z,1009.17
2018-12-01T07:20:25.824Z,1009.20
2018-12-01T07:21:25.830Z,1009.18
2018-12-01T07:22:25.842Z,1009.21
2018-12-01T07:23:25.849Z,1009.19
2018-12-01T07:24:25.861Z,1009.23
2018-12-01T07:25:25.886Z,1009.22
2018-12-01T07:26:25.887Z,1009.22
2018-12-01T07:27:25.924Z,1009.25
2018-12-01T07:28:25.909Z,1009.23
2018-12-01T07:29:25.922Z,1009.25
2018-12-01T07:30:25.930Z,1009.24
2018-12-01T07:31:25.950Z,1009.22
2018-12-01T07:32:25.961Z,1009.19
2018-12-01T07:33:26.399Z,1009.22
2018-12-01T07:34:25.975Z,1009.26
2018-12-01T07:35:25.985Z,1009.24
2018-12-01T07:36:25.997Z,1009.22
2018-12-01T07:37:26.021Z,1009.26
2018-12-01T07:38:26.025Z,1009.25
2018-12-01T07:39:26.037Z,1009.25
2018-12-01T07:40:26.038Z,1009.25
2018-12-01T07:41:26.058Z,1009.26
2018-12-01T07:42:26.078Z,1009.22
2018-12-01T07:43:26.086Z,1009.15
2018-12-01T07:44:26.095Z,1009.23
2018-12-01T07:45:26.104Z,1009.18
2018-12-01T07:46:26.149Z,1009.21
2018-12-01T07:47:26.129Z,1009.22
2018-12-01T07:48:26.144Z,1009.27
2018-12-01T07:49:26.152Z,1009.29
2018-12-01T07:50:26.161Z,1009.25
2018-12-01T07:51:26.173Z,1009.24
2018-12-01T07:52:26.193Z,1009.22
2018-12-01T07:53:26.189Z,1009.21
2018-12-01T07:54:26.210Z,1009.14
2018-12-01T07:55:26.219Z,1009.17
2018-12-01T07:56:26.232Z,1009.12
2018-12-01T07:57:26.242Z,1009.15
2018-12-01T07:58:26.261Z,1009.17
2018-12-01T07:59:26.264Z,1009.23
2018-12-01T08:00:26.284Z,1009.22
2018-12-01T08:01:26.288Z,1009.27
2018-12-01T08:02:26.296Z,1009.27
2018-12-01T08:03:26.872Z,1009.26
2018-12-01T08:04:26.321Z,1009.26
2018-12-01T08:05:26.329Z,1009.19
2018-12-01T08:06:26.349Z,1009.25
2018-12-01T08:07:26.359Z,1009.23
2018-12-01T08:08:26.371Z,1009.26
2018-12-01T08:09:26.375Z,1009.25
2018-12-01T08:10:26.387Z,1009.25
2018-12-01T08:11:26.397Z,1009.24
2018-12-01T08:12:26.419Z,1009.28
2018-12-01T08:13:26.423Z,1009.26
2018-12-01T08:14:26.435Z,1009.26
2018-12-01T08:15:26.449Z,1009.32
2018-12-01T08:16:26.469Z,1009.30
2018-12-01T08:17:26.480Z,1009.33
2018-12-01T08:18:26.477Z,1009.41
2018-12-01T08:19:26.499Z,1009.38
2018-12-01T08:20:26.503Z,1009.33
2018-12-01T08:21:26.518Z,1009.36
2018-12-01T08:22:26.526Z,1009.36
2018-12-01T08:23:26.535Z,1009.39
2018-12-01T08:24:26.556Z,1009.38
2018-12-01T08:25:26.558Z,1009.41
2018-12-01T08:26:26.576Z,1009.43
2018-12-01T08:27:26.584Z,1009.46
2018-12-01T08:28:26.595Z,1009.40
2018-12-01T08:29:26.611Z,1009.39
2018-12-01T08:30:26.612Z,1009.44
2018-12-01T08:31:26.628Z,1009.48
2018-12-01T08:32:26.640Z,1009.48
2018-12-01T08:33:26.655Z,1009.49
2018-12-01T08:34:26.681Z,1009.49
2018-12-01T08:35:26.672Z,1009.47
2018-12-01T08:36:26.705Z,1009.50
2018-12-01T08:37:26.694Z,1009.51
2018-12-01T08:38:26.710Z,1009.50
2018-12-01T08:39:26.725Z,1009.49
2018-12-01T08:40:26.741Z,1009.48
2018-12-01T08:41:26.738Z,1009.46
2018-12-01T08:42:26.752Z,1009.44
2018-12-01T08:43:26.779Z,1009.41
2018-12-01T08:44:26.772Z,1009.41
2018-12-01T08:45:26.787Z,1009.39
2018-12-01T08:46:26.826Z,1009.46
2018-12-01T08:47:26.814Z,1009.46
2018-12-01T08:48:26.822Z,1009.43
2018-12-01T08:49:26.831Z,1009.42
2018-12-01T08:50:26.846Z,1009.43
2018-12-01T08:51:26.858Z,1009.44
2018-12-01T08:52:26.872Z,1009.44
2018-12-01T08:53:26.882Z,1009.45
2018-12-01T08:54:26.892Z,1009.49
2018-12-01T08:55:26.900Z,1009.54
2018-12-01T08:56:26.908Z,1009.52
2018-12-01T08:57:26.926Z,1009.59
2018-12-01T08:58:26.937Z,1009.59
2018-12-01T08:59:26.946Z,1009.60
2018-12-01T09:00:26.978Z,1009.58
2018-12-01T09:01:26.970Z,1009.56
2018-12-01T09:02:26.980Z,1009.54
2018-12-01T09:03:26.998Z,1009.52
2018-12-01T09:04:27.010Z,1009.50
2018-12-01T09:05:27.014Z,1009.53
2018-12-01T09:06:27.032Z,1009.48
2018-12-01T09:07:27.034Z,1009.45
2018-12-01T09:08:27.044Z,1009.45
2018-12-01T09:09:27.062Z,1009.46
2018-12-01T09:10:27.071Z,1009.45
2018-12-01T09:11:27.083Z,1009.43
2018-12-01T09:12:27.099Z,1009.42
2018-12-01T09:13:27.103Z,1009.39
2018-12-01T09:14:27.123Z,1009.44
2018-12-01T09:15:27.131Z,1009.45
2018-12-01T09:16:27.146Z,1009.46
2018-12-01T09:17:27.154Z,1009.48
2018-12-01T09:18:27.182Z,1009.48
2018-12-01T09:19:27.181Z,1009.45
2018-12-01T09:20:27.190Z,1009.49
2018-12-01T09:21:27.203Z,1009.53
2018-12-01T09:22:27.215Z,1009.50
2018-12-01T09:23:27.229Z,1009.46
2018-12-01T09:24:27.239Z,1009.59
2018-12-01T09:25:27.250Z,1009.52
2018-12-01T09:26:27.262Z,1009.48
2018-12-01T09:27:27.276Z,1009.49
2018-12-01T09:28:27.283Z,1009.50
2018-12-01T09:29:27.299Z,1009.47
2018-12-01T09:30:27.305Z,1009.42
2018-12-01T09:31:27.324Z,1009.51
2018-12-01T09:32:27.335Z,1009.47
2018-12-01T09:33:27.346Z,1009.50
2018-12-01T09:34:27.358Z,1009.50
2018-12-01T09:35:27.372Z,1009.53
2018-12-01T09:36:27.383Z,1009.51
2018-12-01T09:37:27.395Z,1009.52
2018-12-01T09:38:27.411Z,1009.51
2018-12-01T09:39:27.413Z,1009.49
2018-12-01T09:40:27.444Z,1009.48
2018-12-01T09:41:27.451Z,1009.46
2018-12-01T09:42:27.451Z,1009.53
2018-12-01T09:43:27.468Z,1009.44
2018-12-01T09:44:27.480Z,1009.45
2018-12-01T09:45:27.491Z,1009.52
2018-12-01T09:46:27.503Z,1009.36
2018-12-01T09:47:27.513Z,1009.44
2018-12-01T09:48:27.525Z,1009.37
2018-12-01T09:49:27.538Z,1009.38
2018-12-01T09:50:27.553Z,1009.33
2018-12-01T09:51:27.569Z,1009.37
2018-12-01T09:52:27.573Z,1009.41
2018-12-01T09:53:27.590Z,1009.40
2018-12-01T09:54:27.620Z,1009.44
2018-12-01T09:55:27.611Z,1009.43
2018-12-01T09:56:27.623Z,1009.44
2018-12-01T09:57:27.643Z,1009.37
2018-12-01T09:58:27.649Z,1009.33
2018-12-01T09:59:27.655Z,1009.32
2018-12-01T10:00:27.671Z,1009.34
2018-12-01T10:01:27.693Z,1009.24
2018-12-01T10:02:27.695Z,1009.29
2018-12-01T10:03:27.719Z,1009.29
2018-12-01T10:04:27.719Z,1009.24
2018-12-01T10:05:27.731Z,1009.22
2018-12-01T10:06:27.743Z,1009.22
2018-12-01T10:07:27.759Z,1009.18
2018-12-01T10:08:27.776Z,1009.19
2018-12-01T10:09:27.796Z,1009.22
2018-12-01T10:10:27.803Z,1009.20
2018-12-01T10:11:27.807Z,1009.20
2018-12-01T10:12:27.817Z,1009.19
2018-12-01T10:13:27.837Z,1009.15
2018-12-01T10:14:27.847Z,1009.13
2018-12-01T10:15:27.867Z,1009.11
2018-12-01T10:16:27.869Z,1009.11
2018-12-01T10:17:27.886Z,1009.08
2018-12-01T10:18:27.892Z,1009.18
2018-12-01T10:19:27.909Z,1009.12
2018-12-01T10:20:27.925Z,1009.12
2018-12-01T10:21:27.935Z,1009.11
2018-12-01T10:22:27.945Z,1009.09
2018-12-01T10:23:27.957Z,1009.12
2018-12-01T10:24:27.973Z,1009.15
2018-12-01T10:25:27.981Z,1009.09
2018-12-01T10:26:27.995Z,1009.15
2018-12-01T10:27:28.014Z,1009.09
2018-12-01T10:28:28.025Z,1009.17
2018-12-01T10:29:28.045Z,1009.14
2018-12-01T10:30:28.043Z,1009.17
2018-12-01T10:31:28.061Z,1009.19
2018-12-01T10:32:28.065Z,1009.16
2018-12-01T10:33:28.081Z,1009.11
2018-12-01T10:34:28.107Z,1009.10
2018-12-01T10:35:28.118Z,1009.14
2018-12-01T10:36:29.017Z,1009.13
2018-12-01T10:37:28.138Z,1009.14
2018-12-01T10:38:28.151Z,1009.05
2018-12-01T10:39:28.159Z,1009.13
2018-12-01T10:40:28.211Z,1009.09
2018-12-01T10:41:28.189Z,1009.05
2018-12-01T10:42:28.351Z,1009.02
2018-12-01T10:43:28.209Z,1009.00
2018-12-01T10:44:28.276Z,1008.93
2018-12-01T10:45:28.242Z,1008.99
2018-12-01T10:46:28.274Z,1008.81
2018-12-01T10:47:28.265Z,1008.83
2018-12-01T10:48:28.863Z,1008.95
2018-12-01T10:49:28.288Z,1008.91
2018-12-01T10:50:28.296Z,1008.91
2018-12-01T10:51:28.316Z,1008.90
2018-12-01T10:52:28.336Z,1008.93
2018-12-01T10:53:28.337Z,1008.86
2018-12-01T10:54:28.352Z,1008.75
2018-12-01T10:55:28.364Z,1008.89
2018-12-01T10:56:28.376Z,1008.82
2018-12-01T10:57:28.392Z,1008.85
2018-12-01T10:58:28.420Z,1008.90
2018-12-01T10:59:28.414Z,1008.80
2018-12-01T11:00:28.434Z,1008.81
2018-12-01T11:01:28.446Z,1008.82
2018-12-01T11:02:28.452Z,1008.84
2018-12-01T11:03:28.465Z,1008.85
2018-12-01T11:04:28.493Z,1008.84
2018-12-01T11:05:28.496Z,1008.78
2018-12-01T11:06:28.508Z,1008.82
2018-12-01T11:07:28.522Z,1008.75
2018-12-01T11:08:28.559Z,1008.85
2018-12-01T11:09:28.547Z,1008.84
2018-12-01T11:10:28.562Z,1008.77
2018-12-01T11:11:28.572Z,1008.79
2018-12-01T11:12:28.593Z,1008.77
2018-12-01T11:13:28.598Z,1008.74
2018-12-01T11:14:28.609Z,1008.74
2018-12-01T11:15:28.623Z,1008.64
2018-12-01T11:16:28.638Z,1008.64
2018-12-01T11:17:28.648Z,1008.69
2018-12-01T11:18:28.665Z,1008.71
2018-12-01T11:19:28.699Z,1008.67
2018-12-01T11:20:28.687Z,1008.67
2018-12-01T11:21:28.713Z,1008.65
2018-12-01T11:22:28.715Z,1008.60
2018-12-01T11:23:28.728Z,1008.61
2018-12-01T11:24:28.744Z,1008.57
2018-12-01T11:25:28.759Z,1008.56
2018-12-01T11:26:28.767Z,1008.52
2018-12-01T11:27:28.782Z,1008.48
2018-12-01T11:28:28.797Z,1008.52
2018-12-01T11:29:28.814Z,1008.43
2018-12-01T11:30:28.821Z,1008.45
2018-12-01T11:31:28.834Z,1008.38
2018-12-01T11:32:28.848Z,1008.47
2018-12-01T11:33:28.860Z,1008.33
2018-12-01T11:34:28.871Z,1008.36
2018-12-01T11:35:28.891Z,1008.43
2018-12-01T11:36:28.902Z,1008.38
2018-12-01T11:37:28.922Z,1008.38
2018-12-01T11:38:28.926Z,1008.38
2018-12-01T11:39:28.942Z,1008.29
2018-12-01T11:40:28.956Z,1008.20
2018-12-01T11:41:29.002Z,1008.35
2018-12-01T11:42:28.983Z,1008.29
2018-12-01T11:43:28.988Z,1008.27
2018-12-01T11:44:29.005Z,1008.22
2018-12-01T11:45:29.020Z,1008.20
2018-12-01T11:46:29.044Z,1008.29
2018-12-01T11:47:29.050Z,1008.11
2018-12-01T11:48:29.062Z,1008.21
2018-12-01T11:49:29.077Z,1008.08
2018-12-01T11:50:29.091Z,1008.14
2018-12-01T11:51:29.108Z,1008.11
2018-12-01T11:52:29.116Z,1008.10
2018-12-01T11:53:29.138Z,1008.01
2018-12-01T11:54:29.144Z,1008.11
2018-12-01T11:55:29.164Z,1007.93
2018-12-01T11:56:29.176Z,1008.00
2018-12-01T11:57:29.186Z,1007.95
2018-12-01T11:58:29.198Z,1007.98
2018-12-01T11:59:29.216Z,1008.04
2018-12-01T12:00:29.228Z,1007.94
2018-12-01T12:01:29.244Z,1007.89
2018-12-01T12:02:29.255Z,1007.87
2018-12-01T12:03:29.267Z,1007.87
2018-12-01T12:04:29.284Z,1007.81
2018-12-01T12:05:29.294Z,1007.87